createdAt,value
2019-04-05T00:00:00.445Z,1005.6151
2019-04-05T00:00:12.335Z,1005.6298
2019-04-05T00:00:24.294Z,1005.6462
2019-04-05T00:00:36.144Z,1005.6757
2019-04-05T00:00:48.080Z,1005.6265
2019-04-05T00:00:59.956Z,1005.638
2019-04-05T00:01:11.852Z,1005.6532
2019-04-05T00:01:23.673Z,1005.6795
2019-04-05T00:01:35.534Z,1005.656
2019-04-05T00:01:47.464Z,1005.6948
2019-04-05T00:01:59.357Z,1005.7128
2019-04-05T00:02:11.233Z,1005.6997
2019-04-05T00:02:23.201Z,1005.6975
2019-04-05T00:02:35.060Z,1005.6898
2019-04-05T00:02:46.952Z,1005.7062
2019-04-05T00:02:58.908Z,1005.7516
2019-04-05T00:03:10.765Z,1005.6979
2019-04-05T00:03:22.647Z,1005.7434
2019-04-05T00:03:34.540Z,1005.7221
2019-04-05T00:03:46.392Z,1005.7352
2019-04-05T00:03:58.315Z,1005.7515
2019-04-05T00:04:10.177Z,1005.756
2019-04-05T00:04:22.070Z,1005.7821
2019-04-05T00:04:33.934Z,1005.7837
2019-04-05T00:04:45.782Z,1005.7784
2019-04-05T00:04:57.708Z,1005.7985
2019-04-05T00:05:09.593Z,1005.8079
2019-04-05T00:05:21.487Z,1005.8013
2019-04-05T00:05:33.392Z,1005.8269
2019-04-05T00:05:46.306Z,1005.8292
2019-04-05T00:05:58.160Z,1005.8428
2019-04-05T00:06:10.046Z,1005.798
2019-04-05T00:06:21.963Z,1005.8216
2019-04-05T00:06:33.858Z,1005.8652
2019-04-05T00:06:45.784Z,1005.8362
2019-04-05T00:06:57.669Z,1005.8521
2019-04-05T00:07:09.526Z,1005.8506
2019-04-05T00:07:21.435Z,1005.7822
2019-04-05T00:07:33.284Z,1005.8156
2019-04-05T00:07:45.236Z,1005.7882
2019-04-05T00:07:57.246Z,1005.7833
2019-04-05T00:08:09.045Z,1005.7893
2019-04-05T00:08:20.988Z,1005.7553
2019-04-05T00:08:32.879Z,1005.7637
2019-04-05T00:08:44.755Z,1005.7029
2019-04-05T00:08:56.773Z,1005.7418
2019-04-05T00:09:08.669Z,1005.7615
2019-04-05T00:09:20.577Z,1005.7588
2019-04-05T00:09:32.509Z,1005.7385
2019-04-05T00:09:44.371Z,1005.7373
2019-04-05T00:09:56.249Z,1005.7304
2019-04-05T00:10:08.206Z,1005.792
2019-04-05T00:10:20.080Z,1005.7593
2019-04-05T00:10:31.990Z,1005.7745
2019-04-05T00:10:43.917Z,1005.7561
2019-04-05T00:10:55.769Z,1005.7642
2019-04-05T00:11:07.654Z,1005.7593
2019-04-05T00:11:19.507Z,1005.715
2019-04-05T00:11:31.365Z,1005.7637
2019-04-05T00:11:43.322Z,1005.7446
2019-04-05T00:11:55.194Z,1005.7592
2019-04-05T00:12:07.118Z,1005.7407
2019-04-05T00:12:19.150Z,1005.7675
2019-04-05T00:12:31.007Z,1005.7331
2019-04-05T00:12:42.862Z,1005.7122
2019-04-05T00:12:54.765Z,1005.7668
2019-04-05T00:13:06.622Z,1005.7363
2019-04-05T00:13:19.470Z,1005.738
2019-04-05T00:13:31.412Z,1005.7329
2019-04-05T00:13:43.449Z,1005.7467
2019-04-05T00:13:55.308Z,1005.7543
2019-04-05T00:14:07.266Z,1005.7462
2019-04-05T00:14:19.174Z,1005.7592
2019-04-05T00:14:31.043Z,1005.7489
2019-04-05T00:14:42.967Z,1005.7363
2019-04-05T00:14:54.902Z,1005.7412
2019-04-05T00:15:14.900Z,1005.7478
2019-04-05T00:15:19.622Z,1005.7948
2019-04-05T00:15:31.547Z,1005.7637
2019-04-05T00:15:43.517Z,1005.7253
2019-04-05T00:15:55.360Z,1005.7118
2019-04-05T00:16:07.266Z,1005.7324
2019-04-05T00:16:19.208Z,1005.7281
2019-04-05T00:16:31.081Z,1005.7276
2019-04-05T00:16:43.015Z,1005.702
2019-04-05T00:16:54.932Z,1005.6981
2019-04-05T00:17:06.851Z,1005.6659
2019-04-05T00:17:19.754Z,1005.679
2019-04-05T00:17:31.675Z,1005.674
2019-04-05T00:17:43.537Z,1005.6556
2019-04-05T00:17:55.406Z,1005.6395
2019-04-05T00:18:07.277Z,1005.6085
2019-04-05T00:18:19.141Z,1005.6348
2019-04-05T00:18:31.073Z,1005.5939
2019-04-05T00:18:42.933Z,1005.6084
2019-04-05T00:18:54.865Z,1005.5998
2019-04-05T00:19:06.730Z,1005.5871
2019-04-05T00:19:18.637Z,1005.5753
2019-04-05T00:19:30.536Z,1005.5676
2019-04-05T00:19:42.392Z,1005.5281
2019-04-05T00:19:54.284Z,1005.5173
2019-04-05T00:20:06.218Z,1005.5446
2019-04-05T00:20:18.096Z,1005.5156
2019-04-05T00:20:30.035Z,1005.5303
2019-04-05T00:20:41.958Z,1005.5074
2019-04-05T00:20:53.826Z,1005.5303
2019-04-05T00:21:05.684Z,1005.5545
2019-04-05T00:21:17.554Z,1005.5239
2019-04-05T00:21:29.460Z,1005.5451
2019-04-05T00:21:41.392Z,1005.5145
2019-04-05T00:21:53.259Z,1005.5363
2019-04-05T00:22:05.203Z,1005.531
2019-04-05T00:22:17.205Z,1005.567
2019-04-05T00:22:29.054Z,1005.5625
2019-04-05T00:22:40.891Z,1005.5954
2019-04-05T00:22:52.876Z,1005.5854
2019-04-05T00:23:04.726Z,1005.5854
2019-04-05T00:23:16.633Z,1005.602
2019-04-05T00:23:28.595Z,1005.6232
2019-04-05T00:23:40.503Z,1005.621
2019-04-05T00:23:52.449Z,1005.6188
2019-04-05T00:24:04.329Z,1005.6413
2019-04-05T00:24:16.181Z,1005.614
2019-04-05T00:24:28.139Z,1005.6369
2019-04-05T00:24:40.040Z,1005.6026
2019-04-05T00:24:51.907Z,1005.637
2019-04-05T00:25:03.864Z,1005.6063
2019-04-05T00:25:15.715Z,1005.62
2019-04-05T00:25:27.642Z,1005.6462
2019-04-05T00:25:39.613Z,1005.6151
2019-04-05T00:25:51.463Z,1005.6177
2019-04-05T00:26:03.408Z,1005.6042
2019-04-05T00:26:15.391Z,1005.6482
2019-04-05T00:26:27.279Z,1005.6026
2019-04-05T00:26:39.186Z,1005.6107
2019-04-05T00:26:51.107Z,1005.5538
2019-04-05T00:27:02.974Z,1005.5621
2019-04-05T00:27:14.917Z,1005.5996
2019-04-05T00:27:26.812Z,1005.59
2019-04-05T00:27:38.659Z,1005.6015
2019-04-05T00:27:50.627Z,1005.5588
2019-04-05T00:28:02.499Z,1005.6031
2019-04-05T00:28:14.378Z,1005.5904
2019-04-05T00:28:26.299Z,1005.6156
2019-04-05T00:28:38.167Z,1005.6133
2019-04-05T00:28:51.819Z,1005.6248
2019-04-05T00:29:03.855Z,1005.5991
2019-04-05T00:29:15.797Z,1005.6314
2019-04-05T00:29:27.700Z,1005.6281
2019-04-05T00:29:39.551Z,1005.6052
2019-04-05T00:29:51.394Z,1005.6576
2019-04-05T00:30:03.246Z,1005.6074
2019-04-05T00:30:15.195Z,1005.6369
2019-04-05T00:30:27.088Z,1005.6172
2019-04-05T00:30:38.932Z,1005.5882
2019-04-05T00:30:50.874Z,1005.6418
2019-04-05T00:31:02.736Z,1005.6095
2019-04-05T00:31:14.665Z,1005.645
2019-04-05T00:31:26.593Z,1005.6391
2019-04-05T00:31:38.435Z,1005.6248
2019-04-05T00:31:50.339Z,1005.6429
2019-04-05T00:32:02.230Z,1005.6373
2019-04-05T00:32:14.075Z,1005.6445
2019-04-05T00:32:26.050Z,1005.6543
2019-04-05T00:32:37.921Z,1005.6286
2019-04-05T00:32:49.762Z,1005.65
2019-04-05T00:33:02.651Z,1005.6205
2019-04-05T00:33:14.536Z,1005.6499
2019-04-05T00:33:26.402Z,1005.6875
2019-04-05T00:33:38.342Z,1005.6548
2019-04-05T00:33:50.281Z,1005.632
2019-04-05T00:34:02.229Z,1005.6369
2019-04-05T00:34:14.192Z,1005.645
2019-04-05T00:34:26.146Z,1005.6242
2019-04-05T00:34:37.999Z,1005.609
2019-04-05T00:34:49.889Z,1005.5878
2019-04-05T00:35:01.720Z,1005.5828
2019-04-05T00:35:13.597Z,1005.5893
2019-04-05T00:35:25.474Z,1005.6041
2019-04-05T00:35:37.313Z,1005.6188
2019-04-05T00:35:49.262Z,1005.5718
2019-04-05T00:36:01.123Z,1005.5849
2019-04-05T00:36:13.005Z,1005.5554
2019-04-05T00:36:24.936Z,1005.5635
2019-04-05T00:36:36.797Z,1005.5795
2019-04-05T00:36:48.752Z,1005.5816
2019-04-05T00:37:00.667Z,1005.5637
2019-04-05T00:37:12.515Z,1005.5717
2019-04-05T00:37:24.423Z,1005.6096
2019-04-05T00:37:36.335Z,1005.603
2019-04-05T00:37:48.189Z,1005.59
2019-04-05T00:38:00.143Z,1005.5658
2019-04-05T00:38:12.006Z,1005.6604
2019-04-05T00:38:23.905Z,1005.5871
2019-04-05T00:38:35.849Z,1005.6276
2019-04-05T00:38:47.714Z,1005.5936
2019-04-05T00:38:59.707Z,1005.6312
2019-04-05T00:39:11.637Z,1005.6265
2019-04-05T00:39:23.501Z,1005.6024
2019-04-05T00:39:35.382Z,1005.6444
2019-04-05T00:39:47.228Z,1005.6171
2019-04-05T00:39:59.073Z,1005.6088
2019-04-05T00:40:11.049Z,1005.6445
2019-04-05T00:40:22.906Z,1005.5827
2019-04-05T00:40:34.843Z,1005.615
2019-04-05T00:40:46.832Z,1005.5778
2019-04-05T00:40:58.723Z,1005.5646
2019-04-05T00:41:10.595Z,1005.5762
2019-04-05T00:41:22.532Z,1005.5189
2019-04-05T00:41:34.370Z,1005.5319
2019-04-05T00:41:47.218Z,1005.5396
2019-04-05T00:41:59.144Z,1005.532
2019-04-05T00:42:11.197Z,1005.5353
2019-04-05T00:42:23.064Z,1005.5047
2019-04-05T00:42:34.987Z,1005.5292
2019-04-05T00:42:47.842Z,1005.5095
2019-04-05T00:42:59.755Z,1005.5173
2019-04-05T00:43:11.612Z,1005.5063
2019-04-05T00:43:23.506Z,1005.5031
2019-04-05T00:43:35.381Z,1005.4773
2019-04-05T00:43:47.285Z,1005.4598
2019-04-05T00:43:59.197Z,1005.4823
2019-04-05T00:44:11.242Z,1005.5133
2019-04-05T00:44:23.084Z,1005.4838
2019-04-05T00:44:35.005Z,1005.4904
2019-04-05T00:44:46.921Z,1005.5068
2019-04-05T00:44:58.799Z,1005.4954
2019-04-05T00:45:10.741Z,1005.5379
2019-04-05T00:45:28.235Z,1005.4981
2019-04-05T00:45:35.482Z,1005.5128
2019-04-05T00:45:47.418Z,1005.5363
2019-04-05T00:45:59.314Z,1005.546
2019-04-05T00:46:11.226Z,1005.5477
2019-04-05T00:46:23.094Z,1005.5444
2019-04-05T00:46:34.945Z,1005.5887
2019-04-05T00:46:46.819Z,1005.5806
2019-04-05T00:46:58.756Z,1005.556
2019-04-05T00:47:10.613Z,1005.5822
2019-04-05T00:47:22.517Z,1005.6099
2019-04-05T00:47:34.391Z,1005.6083
2019-04-05T00:47:46.235Z,1005.6154
2019-04-05T00:47:58.087Z,1005.6215
2019-04-05T00:48:09.935Z,1005.6646
2019-04-05T00:48:21.853Z,1005.6532
2019-04-05T00:48:33.729Z,1005.6727
2019-04-05T00:48:45.610Z,1005.6806
2019-04-05T00:48:57.563Z,1005.7142
2019-04-05T00:49:09.541Z,1005.6882
2019-04-05T00:49:21.383Z,1005.6947
2019-04-05T00:49:33.222Z,1005.7242
2019-04-05T00:49:45.054Z,1005.764
2019-04-05T00:49:56.985Z,1005.764
2019-04-05T00:50:08.934Z,1005.7538
2019-04-05T00:50:20.726Z,1005.7947
2019-04-05T00:50:32.570Z,1005.823
2019-04-05T00:50:44.469Z,1005.8542
2019-04-05T00:50:56.418Z,1005.8493
2019-04-05T00:51:08.250Z,1005.8198
2019-04-05T00:51:20.130Z,1005.8034
2019-04-05T00:51:32.061Z,1005.8251
2019-04-05T00:51:43.919Z,1005.8251
2019-04-05T00:51:55.862Z,1005.8645
2019-04-05T00:52:07.725Z,1005.8433
2019-04-05T00:52:19.573Z,1005.871
2019-04-05T00:52:31.503Z,1005.8616
2019-04-05T00:52:43.348Z,1005.8546
2019-04-05T00:52:55.256Z,1005.8503
2019-04-05T00:53:07.285Z,1005.8815
2019-04-05T00:53:19.167Z,1005.9157
2019-04-05T00:53:31.036Z,1005.9338
2019-04-05T00:53:43.035Z,1005.9404
2019-04-05T00:53:54.895Z,1005.9306
2019-04-05T00:54:06.808Z,1005.945
2019-04-05T00:54:18.747Z,1005.9207
2019-04-05T00:54:30.597Z,1005.9273
2019-04-05T00:54:42.496Z,1005.9318
2019-04-05T00:54:54.383Z,1005.9945
2019-04-05T00:55:06.251Z,1005.9874
2019-04-05T00:55:18.223Z,1005.9895
2019-04-05T00:55:30.052Z,1006.0006
2019-04-05T00:55:41.908Z,1005.9781
2019-04-05T00:55:53.770Z,1006.0039
2019-04-05T00:56:05.621Z,1006.0125
2019-04-05T00:56:17.544Z,1006.0415
2019-04-05T00:56:29.405Z,1006.0317
2019-04-05T00:56:41.308Z,1006.0463
2019-04-05T00:56:53.205Z,1006.0562
2019-04-05T00:57:05.113Z,1005.9938
2019-04-05T00:57:17.038Z,1006.03
2019-04-05T00:57:28.899Z,1006.0507
2019-04-05T00:57:40.747Z,1006.1015
2019-04-05T00:57:52.698Z,1006.0382
2019-04-05T00:58:04.553Z,1006.0349
2019-04-05T00:58:16.465Z,1006.0607
2019-04-05T00:58:29.312Z,1006.0349
2019-04-05T00:58:41.319Z,1006.0476
2019-04-05T00:58:53.180Z,1005.9971
2019-04-05T00:59:05.063Z,1006.007
2019-04-05T00:59:17.034Z,1006.0463
2019-04-05T00:59:28.871Z,1006.0186
2019-04-05T00:59:40.833Z,1006.0509
2019-04-05T00:59:52.742Z,1006.0378
2019-04-05T01:00:04.583Z,1006.023
2019-04-05T01:00:16.531Z,1006.031
2019-04-05T01:00:28.404Z,1006.0573
2019-04-05T01:00:40.279Z,1006.0262
2019-04-05T01:00:52.270Z,1006.0343
2019-04-05T01:01:04.134Z,1006.0262
2019-04-05T01:01:16.068Z,1006.0343
2019-04-05T01:01:28.003Z,1006.0209
2019-04-05T01:01:39.835Z,1006.0404
2019-04-05T01:01:51.789Z,1006.0339
2019-04-05T01:02:03.691Z,1006.0257
2019-04-05T01:02:15.538Z,1006.024
2019-04-05T01:02:27.452Z,1006.0189
2019-04-05T01:02:39.292Z,1006.0386
2019-04-05T01:02:51.206Z,1006.0109
2019-04-05T01:03:03.206Z,1006.0284
2019-04-05T01:03:15.052Z,1006.0108
2019-04-05T01:03:26.943Z,1006.0386
2019-04-05T01:03:38.947Z,1006.0332
2019-04-05T01:03:50.793Z,1006.0595
2019-04-05T01:04:02.733Z,1006.0518
2019-04-05T01:04:14.614Z,1006.042
2019-04-05T01:04:26.437Z,1006.0437
2019-04-05T01:04:38.427Z,1006.0583
2019-04-05T01:04:51.341Z,1006.1026
2019-04-05T01:05:03.343Z,1006.0829
2019-04-05T01:05:15.181Z,1006.1141
2019-04-05T01:05:27.106Z,1006.1151
2019-04-05T01:05:39.100Z,1006.1108
2019-04-05T01:05:50.948Z,1006.1632
2019-04-05T01:06:02.887Z,1006.142
2019-04-05T01:06:14.822Z,1006.142
2019-04-05T01:06:26.671Z,1006.1359
2019-04-05T01:06:38.565Z,1006.154
2019-04-05T01:06:50.462Z,1006.1245
2019-04-05T01:07:02.337Z,1006.1506
2019-04-05T01:07:14.274Z,1006.1801
2019-04-05T01:07:26.156Z,1006.1916
2019-04-05T01:07:38.072Z,1006.2354
2019-04-05T01:07:49.905Z,1006.1934
2019-04-05T01:08:01.752Z,1006.2485
2019-04-05T01:08:13.669Z,1006.2146
2019-04-05T01:08:25.531Z,1006.2736
2019-04-05T01:08:37.450Z,1006.213
2019-04-05T01:08:49.351Z,1006.3254
2019-04-05T01:09:01.318Z,1006.2912
2019-04-05T01:09:13.167Z,1006.2666
2019-04-05T01:09:25.005Z,1006.314
2019-04-05T01:09:36.845Z,1006.3593
2019-04-05T01:09:48.822Z,1006.3015
2019-04-05T01:10:00.690Z,1006.3272
2019-04-05T01:10:12.593Z,1006.3173
2019-04-05T01:10:24.482Z,1006.3616
2019-04-05T01:10:36.418Z,1006.3521
2019-04-05T01:10:48.323Z,1006.3747
2019-04-05T01:11:00.164Z,1006.414
2019-04-05T01:11:12.041Z,1006.4073
2019-04-05T01:11:23.962Z,1006.4483
2019-04-05T01:11:35.807Z,1006.4353
2019-04-05T01:11:47.723Z,1006.4433
2019-04-05T01:11:59.603Z,1006.5039
2019-04-05T01:12:11.450Z,1006.4921
2019-04-05T01:12:24.270Z,1006.5309
2019-04-05T01:12:36.172Z,1006.5373
2019-04-05T01:12:48.148Z,1006.5324
2019-04-05T01:13:00.020Z,1006.5552
2019-04-05T01:13:11.876Z,1006.5521
2019-04-05T01:13:23.723Z,1006.5697
2019-04-05T01:13:35.567Z,1006.6209
2019-04-05T01:13:47.412Z,1006.6138
2019-04-05T01:13:59.321Z,1006.5882
2019-04-05T01:14:11.207Z,1006.6188
2019-04-05T01:14:23.050Z,1006.6143
2019-04-05T01:14:35.019Z,1006.6221
2019-04-05T01:14:46.900Z,1006.6323
2019-04-05T01:14:58.793Z,1006.6532
2019-04-05T01:15:10.693Z,1006.6727
2019-04-05T01:15:22.536Z,1006.6614
2019-04-05T01:15:40.532Z,1006.6679
2019-04-05T01:15:47.320Z,1006.65
2019-04-05T01:15:59.176Z,1006.6855
2019-04-05T01:16:11.015Z,1006.676
2019-04-05T01:16:22.915Z,1006.6723
2019-04-05T01:16:35.363Z,1006.6646
2019-04-05T01:16:47.310Z,1006.6543
2019-04-05T01:16:59.245Z,1006.6412
2019-04-05T01:17:11.085Z,1006.6465
2019-04-05T01:17:24.972Z,1006.6314
2019-04-05T01:17:35.729Z,1006.6598
2019-04-05T01:17:47.616Z,1006.65
2019-04-05T01:17:59.582Z,1006.6364
2019-04-05T01:18:11.441Z,1006.6723
2019-04-05T01:18:23.366Z,1006.6482
2019-04-05T01:18:35.443Z,1006.6663
2019-04-05T01:18:47.308Z,1006.6773
2019-04-05T01:18:59.150Z,1006.7128
2019-04-05T01:19:11.063Z,1006.6624
2019-04-05T01:19:22.914Z,1006.6429
2019-04-05T01:19:34.867Z,1006.6395
2019-04-05T01:19:46.785Z,1006.6511
2019-04-05T01:19:58.645Z,1006.6685
2019-04-05T01:20:10.624Z,1006.604
2019-04-05T01:20:22.469Z,1006.6412
2019-04-05T01:20:34.324Z,1006.6199
2019-04-05T01:20:46.172Z,1006.6817
2019-04-05T01:20:58.015Z,1006.6506
2019-04-05T01:21:09.903Z,1006.6674
2019-04-05T01:21:21.765Z,1006.6314
2019-04-05T01:21:33.648Z,1006.6587
2019-04-05T01:21:45.588Z,1006.6669
2019-04-05T01:21:57.435Z,1006.6498
2019-04-05T01:22:09.331Z,1006.6003
2019-04-05T01:22:21.178Z,1006.6345
2019-04-05T01:22:33.044Z,1006.6603
2019-04-05T01:22:44.982Z,1006.6528
2019-04-05T01:22:56.842Z,1006.6057
2019-04-05T01:23:08.684Z,1006.6592
2019-04-05T01:23:20.580Z,1006.6364
2019-04-05T01:23:32.431Z,1006.6292
2019-04-05T01:23:44.396Z,1006.6149
2019-04-05T01:23:57.285Z,1006.6406
2019-04-05T01:24:09.180Z,1006.6373
2019-04-05T01:24:21.092Z,1006.5692
2019-04-05T01:24:33.041Z,1006.6635
2019-04-05T01:24:44.910Z,1006.6099
2019-04-05T01:24:56.750Z,1006.5887
2019-04-05T01:25:08.720Z,1006.6046
2019-04-05T01:25:20.579Z,1006.6194
2019-04-05T01:25:32.516Z,1006.6325
2019-04-05T01:25:44.486Z,1006.614
2019-04-05T01:25:56.340Z,1006.6259
2019-04-05T01:26:08.288Z,1006.6074
2019-04-05T01:26:20.161Z,1006.5964
2019-04-05T01:26:32.007Z,1006.598
2019-04-05T01:26:43.985Z,1006.6009
2019-04-05T01:26:55.826Z,1006.6127
2019-04-05T01:27:07.730Z,1006.5717
2019-04-05T01:27:19.627Z,1006.5681
2019-04-05T01:27:31.476Z,1006.5927
2019-04-05T01:27:43.408Z,1006.5698
2019-04-05T01:27:55.368Z,1006.567
2019-04-05T01:28:07.213Z,1006.5484
2019-04-05T01:28:19.163Z,1006.5226
2019-04-05T01:28:31.086Z,1006.5926
2019-04-05T01:28:42.947Z,1006.5632
2019-04-05T01:28:54.867Z,1006.5701
2019-04-05T01:29:06.784Z,1006.5434
2019-04-05T01:29:18.689Z,1006.5778
2019-04-05T01:29:30.622Z,1006.5357
2019-04-05T01:29:42.490Z,1006.5664
2019-04-05T01:29:54.429Z,1006.5484
2019-04-05T01:30:06.484Z,1006.5435
2019-04-05T01:30:18.455Z,1006.5308
2019-04-05T01:30:30.235Z,1006.5438
2019-04-05T01:30:42.076Z,1006.5516
2019-04-05T01:30:53.925Z,1006.5407
2019-04-05T01:31:05.875Z,1006.5598
2019-04-05T01:31:17.773Z,1006.562
2019-04-05T01:31:29.622Z,1006.5407
2019-04-05T01:31:41.556Z,1006.5571
2019-04-05T01:31:53.556Z,1006.5473
2019-04-05T01:32:05.406Z,1006.5703
2019-04-05T01:32:17.255Z,1006.5374
2019-04-05T01:32:29.109Z,1006.5119
2019-04-05T01:32:41.046Z,1006.5363
2019-04-05T01:32:52.974Z,1006.5217
2019-04-05T01:33:04.823Z,1006.5495
2019-04-05T01:33:16.689Z,1006.5588
2019-04-05T01:33:28.626Z,1006.561
2019-04-05T01:33:40.466Z,1006.579
2019-04-05T01:33:52.308Z,1006.5921
2019-04-05T01:34:05.493Z,1006.5871
2019-04-05T01:34:17.018Z,1006.6364
2019-04-05T01:34:28.999Z,1006.6105
2019-04-05T01:34:40.873Z,1006.6265
2019-04-05T01:34:52.720Z,1006.64
2019-04-05T01:35:04.845Z,1006.6674
2019-04-05T01:35:16.791Z,1006.6674
2019-04-05T01:35:28.763Z,1006.7149
2019-04-05T01:35:40.642Z,1006.7056
2019-04-05T01:35:52.481Z,1006.7117
2019-04-05T01:36:04.342Z,1006.6953
2019-04-05T01:36:16.293Z,1006.6821
2019-04-05T01:36:28.150Z,1006.7492
2019-04-05T01:36:40.098Z,1006.71
2019-04-05T01:36:52.003Z,1006.7182
2019-04-05T01:37:03.856Z,1006.716
2019-04-05T01:37:15.740Z,1006.7521
2019-04-05T01:37:27.598Z,1006.7182
2019-04-05T01:37:39.469Z,1006.7783
2019-04-05T01:37:51.430Z,1006.7701
2019-04-05T01:38:03.284Z,1006.7489
2019-04-05T01:38:15.203Z,1006.7226
2019-04-05T01:38:27.263Z,1006.7225
2019-04-05T01:38:39.113Z,1006.7456
2019-04-05T01:38:50.999Z,1006.7472
2019-04-05T01:39:02.941Z,1006.7451
2019-04-05T01:39:14.785Z,1006.721
2019-04-05T01:39:26.735Z,1006.7112
2019-04-05T01:39:38.640Z,1006.7084
2019-04-05T01:39:50.493Z,1006.705
2019-04-05T01:40:02.415Z,1006.6953
2019-04-05T01:40:14.285Z,1006.716
2019-04-05T01:40:26.129Z,1006.6755
2019-04-05T01:40:37.994Z,1006.7374
2019-04-05T01:40:49.837Z,1006.7279
2019-04-05T01:41:01.807Z,1006.732
2019-04-05T01:41:13.712Z,1006.7095
2019-04-05T01:41:25.568Z,1006.6866
2019-04-05T01:41:37.497Z,1006.7276
2019-04-05T01:41:49.458Z,1006.6931
2019-04-05T01:42:01.296Z,1006.704
2019-04-05T01:42:13.141Z,1006.7373
2019-04-05T01:42:25.035Z,1006.7095
2019-04-05T01:42:36.938Z,1006.7253
2019-04-05T01:42:48.835Z,1006.6838
2019-04-05T01:43:00.672Z,1006.6963
2019-04-05T01:43:12.529Z,1006.7079
2019-04-05T01:43:24.389Z,1006.6871
2019-04-05T01:43:36.298Z,1006.6948
2019-04-05T01:43:48.139Z,1006.6652
2019-04-05T01:44:00.031Z,1006.7111
2019-04-05T01:44:11.965Z,1006.7019
2019-04-05T01:44:23.814Z,1006.6964
2019-04-05T01:44:35.710Z,1006.6866
2019-04-05T01:44:47.549Z,1006.6773
2019-04-05T01:44:59.386Z,1006.7019
2019-04-05T01:45:11.288Z,1006.6646
2019-04-05T01:45:23.139Z,1006.6663
2019-04-05T01:45:35.092Z,1006.6937
2019-04-05T01:45:53.316Z,1006.676
2019-04-05T01:45:59.966Z,1006.6401
2019-04-05T01:46:11.810Z,1006.681
2019-04-05T01:46:23.645Z,1006.6876
2019-04-05T01:46:35.498Z,1006.6668
2019-04-05T01:46:47.379Z,1006.7449
2019-04-05T01:46:59.283Z,1006.716
2019-04-05T01:47:11.160Z,1006.6898
2019-04-05T01:47:23.052Z,1006.6657
2019-04-05T01:47:34.925Z,1006.6914
2019-04-05T01:47:46.799Z,1006.6574
2019-04-05T01:47:58.722Z,1006.7065
2019-04-05T01:48:10.563Z,1006.7132
2019-04-05T01:48:22.460Z,1006.7521
2019-04-05T01:48:34.354Z,1006.7296
2019-04-05T01:48:46.234Z,1006.7153
2019-04-05T01:48:58.179Z,1006.7301
2019-04-05T01:49:10.030Z,1006.7137
2019-04-05T01:49:21.887Z,1006.7498
2019-04-05T01:49:33.736Z,1006.7366
2019-04-05T01:49:45.590Z,1006.7531
2019-04-05T01:49:57.507Z,1006.8142
2019-04-05T01:50:09.374Z,1006.824
2019-04-05T01:50:21.319Z,1006.7683
2019-04-05T01:50:33.237Z,1006.8104
2019-04-05T01:50:45.213Z,1006.8171
2019-04-05T01:50:57.066Z,1006.8732
2019-04-05T01:51:08.906Z,1006.847
2019-04-05T01:51:20.747Z,1006.8273
2019-04-05T01:51:32.658Z,1006.811
2019-04-05T01:51:44.522Z,1006.8213
2019-04-05T01:51:56.473Z,1006.8373
2019-04-05T01:52:08.364Z,1006.8507
2019-04-05T01:52:20.215Z,1006.8317
2019-04-05T01:52:32.183Z,1006.8671
2019-04-05T01:52:43.987Z,1006.8591
2019-04-05T01:52:55.896Z,1006.8474
2019-04-05T01:53:07.859Z,1006.859
2019-04-05T01:53:19.773Z,1006.8147
2019-04-05T01:53:31.646Z,1006.8328
2019-04-05T01:53:43.561Z,1006.8524
2019-04-05T01:53:55.407Z,1006.8819
2019-04-05T01:54:07.293Z,1006.8312
2019-04-05T01:54:19.139Z,1006.8442
2019-04-05T01:54:30.991Z,1006.8421
2019-04-05T01:54:42.964Z,1006.8409
2019-04-05T01:54:54.827Z,1006.8275
2019-04-05T01:55:06.773Z,1006.8099
2019-04-05T01:55:18.755Z,1006.8343
2019-04-05T01:55:30.634Z,1006.8699
2019-04-05T01:55:42.526Z,1006.8343
2019-04-05T01:55:54.424Z,1006.8225
2019-04-05T01:56:06.272Z,1006.7934
2019-04-05T01:56:18.352Z,1006.7464
2019-04-05T01:56:30.292Z,1006.8131
2019-04-05T01:56:42.142Z,1006.8159
2019-04-05T01:56:54.060Z,1006.8131
2019-04-05T01:57:07.000Z,1006.8115
2019-04-05T01:57:18.946Z,1006.782
2019-04-05T01:57:30.800Z,1006.7575
2019-04-05T01:57:42.712Z,1006.7836
2019-04-05T01:57:54.603Z,1006.7738
2019-04-05T01:58:06.454Z,1006.7836
2019-04-05T01:58:18.348Z,1006.777
2019-04-05T01:58:30.211Z,1006.739
2019-04-05T01:58:42.111Z,1006.7984
2019-04-05T01:58:54.058Z,1006.7951
2019-04-05T01:59:05.897Z,1006.7934
2019-04-05T01:59:17.800Z,1006.7689
2019-04-05T01:59:29.678Z,1006.7771
2019-04-05T01:59:41.541Z,1006.7902
2019-04-05T01:59:53.473Z,1006.7645
2019-04-05T02:00:05.341Z,1006.7874
2019-04-05T02:00:17.253Z,1006.8201
2019-04-05T02:00:29.141Z,1006.819
2019-04-05T02:00:41.047Z,1006.8459
2019-04-05T02:00:52.944Z,1006.8125
2019-04-05T02:01:04.795Z,1006.7993
2019-04-05T02:01:16.723Z,1006.8322
2019-04-05T02:01:28.649Z,1006.8354
2019-04-05T02:01:40.520Z,1006.8223
2019-04-05T02:01:52.444Z,1006.8142
2019-04-05T02:02:04.362Z,1006.8798
2019-04-05T02:02:16.217Z,1006.7988
2019-04-05T02:02:28.099Z,1006.8337
2019-04-05T02:02:39.973Z,1006.8262
2019-04-05T02:02:51.820Z,1006.824
2019-04-05T02:03:03.784Z,1006.8507
2019-04-05T02:03:15.935Z,1006.8355
2019-04-05T02:03:27.800Z,1006.8311
2019-04-05T02:03:39.752Z,1006.8666
2019-04-05T02:03:51.607Z,1006.8453
2019-04-05T02:04:03.454Z,1006.8032
2019-04-05T02:04:15.314Z,1006.8233
2019-04-05T02:04:27.164Z,1006.8922
2019-04-05T02:04:39.119Z,1006.8462
2019-04-05T02:04:52.750Z,1006.8239
2019-04-05T02:05:03.889Z,1006.8325
2019-04-05T02:05:15.763Z,1006.8648
2019-04-05T02:05:27.707Z,1006.844
2019-04-05T02:05:39.556Z,1006.8587
2019-04-05T02:05:51.447Z,1006.8731
2019-04-05T02:06:03.402Z,1006.8572
2019-04-05T02:06:15.271Z,1006.867
2019-04-05T02:06:27.246Z,1006.827
2019-04-05T02:06:39.243Z,1006.8855
2019-04-05T02:06:51.109Z,1006.9112
2019-04-05T02:07:03.059Z,1006.91
2019-04-05T02:07:15.050Z,1006.9067
2019-04-05T02:07:26.922Z,1006.9134
2019-04-05T02:07:38.789Z,1006.8991
2019-04-05T02:07:50.711Z,1006.9396
2019-04-05T02:08:02.607Z,1006.9053
2019-04-05T02:08:14.566Z,1006.9248
2019-04-05T02:08:26.509Z,1006.9548
2019-04-05T02:08:38.370Z,1006.9805
2019-04-05T02:08:50.333Z,1006.9854
2019-04-05T02:09:02.264Z,1007.0067
2019-04-05T02:09:14.161Z,1007.0052
2019-04-05T02:09:26.002Z,1006.9887
2019-04-05T02:09:37.868Z,1006.9793
2019-04-05T02:09:49.741Z,1007.0148
2019-04-05T02:10:01.676Z,1007.0133
2019-04-05T02:10:13.551Z,1007.0236
2019-04-05T02:10:25.493Z,1007.0476
2019-04-05T02:10:37.500Z,1006.9942
2019-04-05T02:10:49.354Z,1007.0755
2019-04-05T02:11:01.189Z,1007.0297
2019-04-05T02:11:13.170Z,1007.0068
2019-04-05T02:11:25.015Z,1006.9985
2019-04-05T02:11:36.948Z,1007.0101
2019-04-05T02:11:48.936Z,1006.9992
2019-04-05T02:12:00.781Z,1007.0303
2019-04-05T02:12:12.729Z,1007.0089
2019-04-05T02:12:24.641Z,1006.9663
2019-04-05T02:12:36.479Z,1007.0056
2019-04-05T02:12:48.439Z,1007.0334
2019-04-05T02:13:00.358Z,1006.9733
2019-04-05T02:13:12.201Z,1006.9992
2019-04-05T02:13:24.088Z,1007.0137
2019-04-05T02:13:35.929Z,1007.0089
2019-04-05T02:13:47.822Z,1007.0334
2019-04-05T02:13:59.702Z,1006.9717
2019-04-05T02:14:11.548Z,1007.0134
2019-04-05T02:14:23.423Z,1006.9876
2019-04-05T02:14:35.261Z,1006.9779
2019-04-05T02:14:47.236Z,1006.9598
2019-04-05T02:14:59.163Z,1006.9478
2019-04-05T02:15:11.004Z,1006.9745
2019-04-05T02:15:23.880Z,1006.9543
2019-04-05T02:15:35.846Z,1006.9318
2019-04-05T02:15:47.708Z,1006.9597
2019-04-05T02:16:05.911Z,1006.9528
2019-04-05T02:16:12.441Z,1006.9221
2019-04-05T02:16:24.446Z,1006.9298